createdAt,value
2023-03-22T00:01:28.721Z,100110.13
2023-03-22T00:03:59.254Z,100092.34
2023-03-22T00:06:28.105Z,100097.63
2023-03-22T00:08:56.642Z,100107.25
2023-03-22T00:11:26.004Z,100092.16
2023-03-22T00:13:55.477Z,100100.13
2023-03-22T00:16:23.914Z,100093.00
2023-03-22T00:18:52.375Z,100094.66
2023-03-22T00:21:20.574Z,100093.75
2023-03-22T00:23:50.916Z,100096.34
2023-03-22T00:26:19.090Z,100090.06
2023-03-22T00:28:49.642Z,100090.00
2023-03-22T00:31:20.185Z,100087.31
2023-03-22T00:33:48.318Z,100089.09
2023-03-22T00:36:16.855Z,100080.13
2023-03-22T00:38:45.485Z,100081.00
2023-03-22T00:41:16.277Z,100074.78
2023-03-22T00:43:46.822Z,100079.16
2023-03-22T00:46:16.196Z,100080.03
2023-03-22T00:48:46.390Z,100063.28
2023-03-22T00:51:15.931Z,100065.78
2023-03-22T00:53:45.051Z,100073.75
2023-03-22T00:56:15.996Z,100056.28
2023-03-22T00:59:06.846Z,100040.25
2023-03-22T01:01:35.292Z,100056.75
2023-03-22T01:04:05.507Z,100056.69
2023-03-22T01:06:34.191Z,100054.84
2023-03-22T01:09:02.607Z,100045.91
2023-03-22T01:11:31.215Z,100053.88
2023-03-22T01:13:59.609Z,100040.59
2023-03-22T01:16:28.010Z,100052.09
2023-03-22T01:18:57.104Z,100044.03
2023-03-22T01:21:26.991Z,100039.53
2023-03-22T01:23:57.491Z,100036.88
2023-03-22T01:26:25.763Z,100032.50
2023-03-22T01:28:54.069Z,100025.44
2023-03-22T01:31:22.227Z,100023.69
2023-03-22T01:33:50.819Z,100025.47
2023-03-22T01:36:21.595Z,100024.63
2023-03-22T01:38:51.512Z,100026.44
2023-03-22T01:41:20.436Z,100022.03
2023-03-22T01:44:11.288Z,100024.69
2023-03-22T01:46:40.004Z,100034.47
2023-03-22T01:49:12.669Z,100031.88
2023-03-22T01:51:43.888Z,100020.50
2023-03-22T01:54:31.504Z,100024.88
2023-03-22T01:57:01.920Z,100031.91
2023-03-22T01:59:38.114Z,100038.09
2023-03-22T02:02:25.591Z,100016.56
2023-03-22T02:05:01.208Z,100022.69
2023-03-22T02:07:31.970Z,100023.56
2023-03-22T02:10:05.013Z,100015.53
2023-03-22T02:12:58.883Z,100022.38
2023-03-22T02:16:09.630Z,100028.56
2023-03-22T02:19:31.896Z,100019.72
2023-03-22T02:22:29.058Z,100014.34
2023-03-22T02:25:22.091Z,100018.72
2023-03-22T02:28:18.624Z,100004.59
2023-03-22T02:31:18.096Z,100008.94
2023-03-22T02:34:27.248Z,100004.50
2023-03-22T02:37:13.371Z,100014.25
2023-03-22T02:39:46.448Z,100015.22
2023-03-22T02:42:28.600Z,100004.59
2023-03-22T02:45:05.655Z,100009.09
2023-03-22T02:47:42.298Z,100013.53
2023-03-22T02:50:16.636Z,100004.72
2023-03-22T02:52:51.163Z,99990.72
2023-03-22T02:55:25.374Z,99993.31
2023-03-22T02:57:55.534Z,99999.66
2023-03-22T03:00:27.065Z,99991.75
2023-03-22T03:02:58.024Z,99990.97
2023-03-22T03:05:29.194Z,99989.28
2023-03-22T03:08:01.522Z,99990.16
2023-03-22T03:10:34.415Z,99992.81
2023-03-22T03:13:02.694Z,99986.66
2023-03-22T03:15:31.173Z,99989.31
2023-03-22T03:18:17.347Z,99984.84
2023-03-22T03:20:55.474Z,99980.50
2023-03-22T03:23:32.294Z,99989.31
2023-03-22T03:26:09.029Z,99981.41
2023-03-22T03:28:44.857Z,99974.47
2023-03-22T03:31:26.415Z,99969.22
2023-03-22T03:34:03.739Z,99977.34
2023-03-22T03:36:38.004Z,99972.16
2023-03-22T03:39:11.037Z,99974.84
2023-03-22T03:41:43.456Z,99975.81
2023-03-22T03:44:12.655Z,99966.16
2023-03-22T03:46:41.876Z,99969.78
2023-03-22T03:49:12.670Z,99967.13
2023-03-22T03:51:49.517Z,99966.16
2023-03-22T03:54:17.772Z,99967.06
2023-03-22T03:56:48.614Z,99967.00
2023-03-22T03:59:17.462Z,99960.84
2023-03-22T04:01:52.372Z,99971.47
2023-03-22T04:04:29.521Z,99965.28
2023-03-22T04:09:51.121Z,99969.88
2023-03-22T04:12:29.421Z,99962.88
2023-03-22T04:15:15.060Z,99962.06
2023-03-22T04:17:49.650Z,99964.94
2023-03-22T04:20:19.621Z,99954.47
2023-03-22T04:22:49.217Z,99953.69
2023-03-22T04:25:19.126Z,99944.09
2023-03-22T04:28:01.320Z,99945.88
2023-03-22T04:30:36.136Z,99939.75
2023-03-22T04:33:23.719Z,99934.59
2023-03-22T04:36:11.316Z,99931.22
2023-03-22T04:38:52.432Z,99936.84
2023-03-22T04:41:25.900Z,99939.75
2023-03-22T04:43:57.789Z,99932.06
2023-03-22T04:46:26.637Z,99940.19
2023-03-22T04:49:03.506Z,99934.09
2023-03-22T04:51:35.271Z,99931.59
2023-03-22T04:54:30.211Z,99922.88
2023-03-22T04:57:03.016Z,99918.66
2023-03-22T04:59:36.972Z,99916.16
2023-03-22T05:02:05.220Z,99930.38
2023-03-22T05:04:41.157Z,99937.69
2023-03-22T05:07:21.806Z,99941.19
2023-03-22T05:09:54.854Z,99932.56
2023-03-22T05:12:24.981Z,99935.19
2023-03-22T05:15:08.023Z,99942.16
2023-03-22T05:17:39.524Z,99944.00
2023-03-22T05:20:10.202Z,99939.75
2023-03-22T05:22:41.503Z,99942.59
2023-03-22T05:25:12.019Z,99943.56
2023-03-22T05:27:46.241Z,99947.03
2023-03-22T05:30:34.792Z,99947.78
2023-03-22T05:33:21.855Z,99945.97
2023-03-22T05:35:53.275Z,99952.97
2023-03-22T05:38:24.696Z,99956.31
2023-03-22T05:40:55.709Z,99958.13
2023-03-22T05:43:28.335Z,99960.69
2023-03-22T05:45:56.891Z,99966.72
2023-03-22T05:48:36.173Z,99958.81
2023-03-22T05:51:09.702Z,99957.75
2023-03-22T05:53:38.293Z,99962.03
2023-03-22T05:56:16.943Z,99955.69
2023-03-22T05:58:49.054Z,99955.56
2023-03-22T06:01:23.110Z,99956.38
2023-03-22T06:04:15.712Z,99960.72
2023-03-22T06:07:02.101Z,99963.16
2023-03-22T06:10:00.015Z,99954.94
2023-03-22T06:12:31.542Z,99954.84
2023-03-22T06:15:16.339Z,99949.34
2023-03-22T06:17:55.312Z,99946.69
2023-03-22T06:20:27.571Z,99943.88
2023-03-22T06:23:01.945Z,99934.78
2023-03-22T06:25:30.270Z,99939.88
2023-03-22T06:27:58.375Z,99953.75
2023-03-22T06:30:28.995Z,99964.78
2023-03-22T06:33:19.930Z,99963.41
2023-03-22T06:35:53.191Z,99959.97
2023-03-22T06:38:29.667Z,99963.63
2023-03-22T06:40:58.835Z,99962.06
2023-03-22T06:43:29.939Z,99962.28
2023-03-22T06:46:10.947Z,99962.94
2023-03-22T06:48:49.021Z,99968.38
2023-03-22T06:51:18.429Z,99973.56
2023-03-22T06:53:50.225Z,99972.75
2023-03-22T06:56:18.814Z,99970.66
2023-03-22T06:58:51.933Z,99967.94
2023-03-22T07:01:21.966Z,99976.75
2023-03-22T07:03:50.937Z,99972.00
2023-03-22T07:06:23.119Z,99975.88
2023-03-22T07:08:52.518Z,99976.41
2023-03-22T07:11:28.820Z,99971.38
2023-03-22T07:14:03.462Z,99979.47
2023-03-22T07:16:53.456Z,99982.81
2023-03-22T07:19:24.273Z,99979.66
2023-03-22T07:21:53.014Z,99985.34
2023-03-22T07:24:21.950Z,99985.97
2023-03-22T07:26:53.584Z,99983.41
2023-03-22T07:29:25.636Z,99981.16
2023-03-22T07:31:55.484Z,99973.44
2023-03-22T07:34:27.621Z,99979.03
2023-03-22T07:37:05.366Z,99983.97
2023-03-22T07:39:33.973Z,99974.47
2023-03-22T07:42:02.392Z,99978.31
2023-03-22T07:44:39.217Z,99978.16
2023-03-22T07:47:37.824Z,99980.53
2023-03-22T07:50:20.506Z,99977.84
2023-03-22T07:52:54.975Z,99975.66
2023-03-22T07:55:25.272Z,99971.72
2023-03-22T07:57:53.915Z,99961.66
2023-03-22T08:00:23.114Z,99974.84
2023-03-22T08:03:03.904Z,99975.06
2023-03-22T08:05:49.424Z,99967.75
2023-03-22T08:08:18.128Z,99959.47
2023-03-22T08:10:50.692Z,99967.59
2023-03-22T08:13:19.424Z,99966.47
2023-03-22T08:15:49.903Z,99958.69
2023-03-22T08:18:21.998Z,99964.75
2023-03-22T08:20:54.728Z,99963.91
2023-03-22T08:23:40.896Z,99959.63
2023-03-22T08:26:30.556Z,99955.47
2023-03-22T08:29:05.298Z,99955.25
2023-03-22T08:31:36.434Z,99967.00
2023-03-22T08:34:06.414Z,99954.66
2023-03-22T08:36:38.944Z,99956.41
2023-03-22T08:39:09.967Z,99958.44
2023-03-22T08:41:56.298Z,99960.78
2023-03-22T08:44:27.523Z,99960.72
2023-03-22T08:46:56.532Z,99961.63
2023-03-22T08:49:27.212Z,99955.34
2023-03-22T08:52:01.745Z,99957.06
2023-03-22T08:54:59.799Z,99968.50
2023-03-22T08:57:50.656Z,99947.09
2023-03-22T09:00:42.286Z,99952.38
2023-03-22T09:03:24.037Z,99939.31
2023-03-22T09:05:54.030Z,99941.97
2023-03-22T09:10:57.474Z,99943.75
2023-03-22T09:13:30.627Z,99937.03
2023-03-22T09:16:02.397Z,99928.09
2023-03-22T09:18:33.860Z,99925.59
2023-03-22T09:21:07.945Z,99918.44
2023-03-22T09:23:47.628Z,99918.81
2023-03-22T09:26:20.037Z,99919.72
2023-03-22T09:28:53.351Z,99920.22
2023-03-22T09:31:22.435Z,99911.78
2023-03-22T09:34:02.332Z,99906.34
2023-03-22T09:36:32.394Z,99914.19
2023-03-22T09:39:06.710Z,99916.47
2023-03-22T09:41:44.603Z,99907.97
2023-03-22T09:44:17.000Z,99909.88
2023-03-22T09:46:49.625Z,99901.78
2023-03-22T09:49:21.252Z,99904.88
2023-03-22T09:51:51.781Z,99895.53
2023-03-22T09:54:28.222Z,99880.19
2023-03-22T09:57:06.533Z,99884.75
2023-03-22T09:59:40.963Z,99895.34
2023-03-22T10:02:34.016Z,99882.91
2023-03-22T10:05:13.193Z,99880.28
2023-03-22T10:07:56.437Z,99879.78
2023-03-22T10:10:26.694Z,99877.72
2023-03-22T10:13:01.832Z,99871.81
2023-03-22T10:15:34.350Z,99872.22
2023-03-22T10:18:09.146Z,99877.41
2023-03-22T10:20:43.231Z,99866.69
2023-03-22T10:23:17.755Z,99869.03
2023-03-22T10:25:46.023Z,99869.28
2023-03-22T10:28:22.281Z,99872.78
2023-03-22T10:30:54.829Z,99883.53
2023-03-22T10:33:30.196Z,99873.44
2023-03-22T10:35:58.792Z,99881.63
2023-03-22T10:38:30.857Z,99869.25
2023-03-22T10:41:01.480Z,99870.13
2023-03-22T10:43:34.049Z,99869.25
2023-03-22T10:46:05.357Z,99875.50
2023-03-22T10:48:39.096Z,99870.69
2023-03-22T10:51:09.071Z,99870.53
2023-03-22T10:53:40.814Z,99866.00
2023-03-22T10:56:14.591Z,99873.81
2023-03-22T10:58:44.303Z,99863.47
2023-03-22T11:01:14.727Z,99865.00
2023-03-22T11:03:50.204Z,99860.31
2023-03-22T11:06:21.422Z,99855.72
2023-03-22T11:08:51.467Z,99853.50
2023-03-22T11:11:23.927Z,99831.66
2023-03-22T11:14:01.049Z,99851.53
2023-03-22T11:16:30.709Z,99849.84
2023-03-22T11:19:02.281Z,99851.09
2023-03-22T11:21:33.523Z,99856.66
2023-03-22T11:24:04.921Z,99849.88
2023-03-22T11:26:39.210Z,99848.31
2023-03-22T11:29:17.828Z,99852.84
2023-03-22T11:31:56.070Z,99840.94
2023-03-22T11:34:27.720Z,99831.81
2023-03-22T11:36:57.917Z,99831.88
2023-03-22T11:39:28.960Z,99827.31
2023-03-22T11:42:01.713Z,99827.56
2023-03-22T11:44:38.073Z,99824.56
2023-03-22T11:47:20.723Z,99824.41
2023-03-22T11:49:56.452Z,99823.34
2023-03-22T11:52:27.853Z,99810.25
2023-03-22T11:54:57.083Z,99813.84
2023-03-22T11:57:31.556Z,99811.16
2023-03-22T12:00:11.753Z,99820.59
2023-03-22T12:02:47.439Z,99816.69
2023-03-22T12:05:21.725Z,99806.72
2023-03-22T12:07:56.093Z,99810.25
2023-03-22T12:10:29.813Z,99794.72
2023-03-22T12:13:02.695Z,99805.94
2023-03-22T12:15:39.524Z,99804.69
2023-03-22T12:18:13.563Z,99800.63
2023-03-22T12:20:49.909Z,99760.63
2023-03-22T12:23:21.505Z,99787.69
2023-03-22T12:25:56.620Z,99766.03
2023-03-22T12:28:29.880Z,99776.00
2023-03-22T12:31:00.686Z,99781.31
2023-03-22T12:33:32.409Z,99775.16
2023-03-22T12:36:03.856Z,99767.91
2023-03-22T12:38:40.873Z,99766.47
2023-03-22T12:41:13.306Z,99778.16
2023-03-22T12:43:48.027Z,99768.47
2023-03-22T12:46:25.191Z,99762.03
2023-03-22T12:49:01.438Z,99767.97
2023-03-22T12:51:29.741Z,99767.50
2023-03-22T12:54:01.738Z,99755.56
2023-03-22T12:56:39.213Z,99763.81
2023-03-22T12:59:17.983Z,99754.19
2023-03-22T13:01:54.872Z,99743.88
2023-03-22T13:04:43.346Z,99750.69
2023-03-22T13:07:15.537Z,99744.56
2023-03-22T13:09:45.169Z,99737.63
2023-03-22T13:12:32.827Z,99741.19
2023-03-22T13:15:18.716Z,99738.50
2023-03-22T13:17:51.236Z,99742.19
2023-03-22T13:20:34.242Z,99733.34
2023-03-22T13:23:09.911Z,99728.41
2023-03-22T13:25:39.962Z,99733.94
2023-03-22T13:28:26.342Z,99732.22
2023-03-22T13:30:56.695Z,99729.63
2023-03-22T13:33:30.072Z,99735.91
2023-03-22T13:36:01.530Z,99726.56
2023-03-22T13:38:34.249Z,99722.38
2023-03-22T13:41:05.220Z,99702.59
2023-03-22T13:43:35.425Z,99717.47
2023-03-22T13:46:14.274Z,99713.78
2023-03-22T13:49:18.239Z,99730.41
2023-03-22T13:51:49.732Z,99712.53
2023-03-22T13:54:24.055Z,99720.13
2023-03-22T13:56:57.180Z,99720.00
2023-03-22T13:59:27.539Z,99711.06
2023-03-22T14:02:00.367Z,99710.53
2023-03-22T14:04:35.078Z,99709.84
2023-03-22T14:07:13.473Z,99709.56
2023-03-22T14:12:04.848Z,99716.09
2023-03-22T14:14:41.259Z,99712.50
2023-03-22T14:17:19.341Z,99713.81
2023-03-22T14:19:48.417Z,99710.03
